createdAt,value
2019-01-05T00:00:48.281Z,29.57
2019-01-05T00:03:21.492Z,35.93
2019-01-05T00:06:00.289Z,30.60
2019-01-05T00:08:45.716Z,34.37
2019-01-05T00:11:31.896Z,32.63
2019-01-05T00:14:18.242Z,34.20
2019-01-05T00:17:03.698Z,33.30
2019-01-05T00:19:41.436Z,32.13
2019-01-05T00:22:20.827Z,33.70
2019-01-05T00:25:07.537Z,32.77
2019-01-05T00:27:54.762Z,34.17
2019-01-05T00:30:58.830Z,28.87
2019-01-05T00:33:34.570Z,27.00
2019-01-05T00:36:04.769Z,30.30
2019-01-05T00:39:09.738Z,31.23
2019-01-05T00:41:55.760Z,29.60
2019-01-05T00:44:25.913Z,31.93
2019-01-05T00:47:12.107Z,32.43
2019-01-05T00:49:58.283Z,24.67
2019-01-05T00:52:28.783Z,29.47
2019-01-05T00:55:04.826Z,29.80
2019-01-05T00:57:52.957Z,28.53
2019-01-05T01:00:35.093Z,28.97
2019-01-05T01:03:21.302Z,25.60
2019-01-05T01:05:51.769Z,22.40
2019-01-05T01:08:27.973Z,23.17
2019-01-05T01:11:14.238Z,22.37
2019-01-05T01:13:53.492Z,21.13
2019-01-05T01:16:23.663Z,20.37
2019-01-05T01:18:56.702Z,19.63
2019-01-05T01:21:42.951Z,18.47
2019-01-05T01:24:28.336Z,16.37
2019-01-05T01:27:14.808Z,17.33
2019-01-05T01:29:56.923Z,16.83
2019-01-05T01:32:41.936Z,14.67
2019-01-05T01:35:28.320Z,15.27
2019-01-05T01:38:18.370Z,14.50
2019-01-05T01:40:54.608Z,14.40
2019-01-05T01:43:33.596Z,13.80
2019-01-05T01:46:12.974Z,13.60
2019-01-05T01:48:59.094Z,13.27
2019-01-05T01:51:29.226Z,13.73
2019-01-05T01:54:02.256Z,15.07
2019-01-05T01:56:38.196Z,14.13
2019-01-05T01:59:24.532Z,13.63
2019-01-05T02:01:58.102Z,13.63
2019-01-05T02:04:47.346Z,14.23
2019-01-05T02:07:33.868Z,11.83
2019-01-05T02:10:03.944Z,13.13
2019-01-05T02:12:43.170Z,12.63
2019-01-05T02:15:31.796Z,12.83
2019-01-05T02:18:11.202Z,12.10
2019-01-05T02:21:11.542Z,12.50
2019-01-05T02:24:03.686Z,12.00
2019-01-05T02:27:21.708Z,11.83
2019-01-05T02:30:27.490Z,11.87
2019-01-05T02:33:06.507Z,11.80
2019-01-05T02:36:16.843Z,11.93
2019-01-05T02:39:06.453Z,12.07
2019-01-05T02:42:06.208Z,12.37
2019-01-05T02:44:45.286Z,12.80
2019-01-05T02:47:45.624Z,12.83
2019-01-05T02:50:44.461Z,13.27
2019-01-05T02:53:47.456Z,14.70
2019-01-05T02:56:53.201Z,15.10
2019-01-05T03:00:15.785Z,15.47
2019-01-05T03:02:57.494Z,16.43
2019-01-05T03:05:42.526Z,16.47
2019-01-05T03:08:31.695Z,16.67
2019-01-05T03:11:10.796Z,16.53
2019-01-05T03:14:28.694Z,17.83
2019-01-05T03:17:30.412Z,16.73
2019-01-05T03:20:21.122Z,17.20
2019-01-05T03:23:18.098Z,17.47
2019-01-05T03:26:14.356Z,17.80
2019-01-05T03:29:05.536Z,18.53
2019-01-05T03:31:59.450Z,18.80
2019-01-05T03:34:48.378Z,18.90
2019-01-05T03:37:55.664Z,18.57
2019-01-05T03:40:31.550Z,19.23
2019-01-05T03:43:40.517Z,18.27
2019-01-05T03:46:30.264Z,17.43
2019-01-05T03:49:39.092Z,16.43
2019-01-05T03:52:28.885Z,15.97
2019-01-05T03:55:22.988Z,15.57
2019-01-05T03:58:32.369Z,15.67
2019-01-05T04:01:50.051Z,15.93
2019-01-05T04:05:14.665Z,16.07
2019-01-05T04:08:19.784Z,15.43
2019-01-05T04:11:07.523Z,15.90
2019-01-05T04:13:46.457Z,16.13
2019-01-05T04:16:55.498Z,16.17
2019-01-05T04:19:37.677Z,16.57
2019-01-05T04:22:53.520Z,13.63
2019-01-05T04:26:01.222Z,15.57
2019-01-05T04:28:58.675Z,14.87
2019-01-05T04:31:37.737Z,14.07
2019-01-05T04:38:08.660Z,13.87
2019-01-05T04:40:45.558Z,14.40
2019-01-05T04:43:41.005Z,14.13
2019-01-05T04:46:46.483Z,13.53
2019-01-05T04:49:49.366Z,12.90
2019-01-05T04:55:53.168Z,13.37
2019-01-05T05:01:56.950Z,13.37
2019-01-05T05:05:04.609Z,11.83
2019-01-05T05:07:46.818Z,12.20
2019-01-05T05:10:34.829Z,12.13
2019-01-05T05:13:34.952Z,12.43
2019-01-05T05:16:24.357Z,11.70
2019-01-05T05:19:00.487Z,12.13
2019-01-05T05:21:42.157Z,11.13
2019-01-05T05:24:51.083Z,11.83
2019-01-05T05:27:58.968Z,9.80
2019-01-05T05:31:21.712Z,10.50
2019-01-05T05:37:53.974Z,9.90
2019-01-05T05:40:41.889Z,10.60
2019-01-05T05:43:37.611Z,10.73
2019-01-05T05:46:25.674Z,12.93
2019-01-05T05:49:17.387Z,11.47
2019-01-05T05:52:11.294Z,11.77
2019-01-05T05:55:37.491Z,11.47
2019-01-05T05:58:16.534Z,11.27
2019-01-05T06:01:05.769Z,12.03
2019-01-05T06:04:00.809Z,13.17
2019-01-05T06:06:50.542Z,12.67
2019-01-05T06:09:57.268Z,11.77
2019-01-05T06:12:57.487Z,12.93
2019-01-05T06:15:52.683Z,13.17
2019-01-05T06:18:37.572Z,12.83
2019-01-05T06:21:31.405Z,12.53
2019-01-05T06:24:28.678Z,14.00
2019-01-05T06:27:40.765Z,14.10
2019-01-05T06:30:29.636Z,13.37
2019-01-05T06:33:28.481Z,14.00
2019-01-05T06:39:44.495Z,15.23
2019-01-05T06:45:47.739Z,16.27
2019-01-05T06:48:40.285Z,15.60
2019-01-05T06:51:35.697Z,17.83
2019-01-05T06:54:20.951Z,17.07
2019-01-05T06:56:59.862Z,17.33
2019-01-05T07:00:25.774Z,16.90
2019-01-05T07:03:33.353Z,19.23
2019-01-05T07:06:40.841Z,17.87
2019-01-05T07:09:36.727Z,17.83
2019-01-05T07:12:46.847Z,17.37
2019-01-05T07:15:39.285Z,16.57
2019-01-05T07:18:20.878Z,16.00
2019-01-05T07:21:12.761Z,15.77
2019-01-05T07:24:31.155Z,14.37
2019-01-05T07:27:38.547Z,13.97
2019-01-05T07:30:48.341Z,11.97
2019-01-05T07:33:57.247Z,12.60
2019-01-05T07:36:54.427Z,13.77
2019-01-05T07:39:59.114Z,13.17
2019-01-05T07:42:59.261Z,12.27
2019-01-05T07:45:41.157Z,12.17
2019-01-05T07:49:03.302Z,13.07
2019-01-05T07:52:25.676Z,11.40
2019-01-05T07:55:49.501Z,11.20
2019-01-05T07:59:11.865Z,12.53
2019-01-05T08:02:11.833Z,11.50
2019-01-05T08:04:47.683Z,11.47
2019-01-05T08:07:39.993Z,10.03
2019-01-05T08:10:34.233Z,10.37
2019-01-05T08:13:25.955Z,10.40
2019-01-05T08:16:28.466Z,9.07
2019-01-05T08:19:21.899Z,9.40
2019-01-05T08:22:23.425Z,9.80
2019-01-05T08:25:31.901Z,9.67
2019-01-05T08:28:42.643Z,10.87
2019-01-05T08:31:30.145Z,9.63
2019-01-05T08:34:22.697Z,11.07
2019-01-05T08:37:17.705Z,10.40
2019-01-05T08:40:29.874Z,9.93
2019-01-05T08:43:36.079Z,10.93
2019-01-05T08:46:51.206Z,10.57
2019-01-05T08:49:45.502Z,10.10
2019-01-05T08:52:39.742Z,10.53
2019-01-05T08:55:27.564Z,10.17
2019-01-05T08:58:33.653Z,9.90
2019-01-05T09:01:33.650Z,12.37
2019-01-05T09:04:12.956Z,13.03
2019-01-05T09:07:10.153Z,14.30
2019-01-05T09:10:29.754Z,14.77
2019-01-05T09:13:40.188Z,16.67
2019-01-05T09:16:41.757Z,17.63
2019-01-05T09:19:26.642Z,18.90
2019-01-05T09:22:20.640Z,20.47
2019-01-05T09:25:27.234Z,16.27
2019-01-05T09:28:28.420Z,17.30
2019-01-05T09:31:35.998Z,17.80
2019-01-05T09:34:39.123Z,18.40
2019-01-05T09:37:30.203Z,16.47
2019-01-05T09:40:33.215Z,17.90
2019-01-05T09:43:31.744Z,15.20
2019-01-05T09:46:22.976Z,13.97
2019-01-05T09:49:15.738Z,15.20
2019-01-05T09:52:11.290Z,18.00
2019-01-05T09:55:03.314Z,16.70
2019-01-05T09:57:36.680Z,15.67
2019-01-05T10:00:39.942Z,16.40
2019-01-05T10:03:42.846Z,15.07
2019-01-05T10:06:41.532Z,14.33
2019-01-05T10:09:48.138Z,13.03
2019-01-05T10:12:57.440Z,12.63
2019-01-05T10:16:22.070Z,11.20
2019-01-05T10:19:30.759Z,11.70
2019-01-05T10:22:15.642Z,10.00
2019-01-05T10:25:00.757Z,9.77
2019-01-05T10:27:57.682Z,8.63
2019-01-05T10:31:17.780Z,8.67
2019-01-05T10:54:42.078Z,2.37
2019-01-05T11:40:56.072Z,2.52
2019-01-05T11:43:47.963Z,2.20
2019-01-05T11:47:00.203Z,2.70
2019-01-05T11:49:45.295Z,2.97
2019-01-05T11:53:08.037Z,3.13
2019-01-05T11:56:12.181Z,2.90
2019-01-05T11:59:16.592Z,2.50
2019-01-05T12:02:01.543Z,3.27
2019-01-05T12:05:18.120Z,3.40
2019-01-05T12:08:31.206Z,3.37
2019-01-05T12:11:20.865Z,3.60
2019-01-05T12:14:43.525Z,4.00
2019-01-05T12:17:34.811Z,4.70
2019-01-05T12:20:20.111Z,4.07
2019-01-05T12:23:26.357Z,4.03
2019-01-05T12:26:36.202Z,3.70
2019-01-05T12:29:41.489Z,3.80
2019-01-05T12:32:32.623Z,3.70
2019-01-05T12:35:40.696Z,3.20
2019-01-05T12:38:39.578Z,3.20
2019-01-05T12:41:33.587Z,3.30
2019-01-05T12:44:12.547Z,4.00
2019-01-05T12:47:11.632Z,4.00
2019-01-05T12:50:28.478Z,3.40
2019-01-05T12:53:38.105Z,3.30
2019-01-05T12:56:42.965Z,3.60
2019-01-05T13:00:02.646Z,3.13
2019-01-05T13:03:20.757Z,3.00
2019-01-05T13:06:13.226Z,3.10
2019-01-05T13:09:28.927Z,3.53
2019-01-05T13:12:21.371Z,3.30
2019-01-05T13:15:28.095Z,3.00
2019-01-05T13:18:34.712Z,3.23
2019-01-05T13:21:19.608Z,3.00
2019-01-05T13:24:04.637Z,2.67
2019-01-05T13:27:27.406Z,2.97
2019-01-05T13:30:21.875Z,3.50
2019-01-05T13:33:16.191Z,3.40
2019-01-05T13:36:19.477Z,3.03
2019-01-05T13:39:29.415Z,3.00
2019-01-05T13:42:27.783Z,3.63
2019-01-05T13:45:25.342Z,3.30
2019-01-05T13:48:36.168Z,3.23
2019-01-05T13:51:34.754Z,3.03
2019-01-05T13:54:10.688Z,3.43
2019-01-05T13:56:56.166Z,3.43
2019-01-05T13:59:40.128Z,3.23
2019-01-05T14:02:10.250Z,4.40
2019-01-05T14:04:54.102Z,5.77
2019-01-05T14:07:40.108Z,5.67
2019-01-05T14:10:15.836Z,6.37
2019-01-05T14:12:46.064Z,6.87
2019-01-05T14:15:19.224Z,7.77
2019-01-05T14:17:58.097Z,6.80
2019-01-05T14:20:44.822Z,7.47
2019-01-05T14:23:34.541Z,5.77
2019-01-05T14:26:07.319Z,5.80
2019-01-05T14:28:53.998Z,6.87
2019-01-05T14:31:30.174Z,5.90
2019-01-05T14:34:03.782Z,6.77
2019-01-05T14:36:48.786Z,5.60
2019-01-05T14:39:30.899Z,5.27
2019-01-05T14:42:06.830Z,6.03
2019-01-05T14:44:54.723Z,5.83
2019-01-05T14:47:50.980Z,5.67
2019-01-05T14:50:37.814Z,4.33
2019-01-05T14:53:13.614Z,5.33
2019-01-05T14:55:44.136Z,4.10
2019-01-05T14:58:14.335Z,4.87
2019-01-05T15:01:01.976Z,4.73
2019-01-05T15:04:09.752Z,3.47
2019-01-05T15:07:00.381Z,3.70
2019-01-05T15:09:30.718Z,3.67
2019-01-05T15:12:08.496Z,4.13
2019-01-05T15:14:56.495Z,4.27
2019-01-05T15:17:27.113Z,3.83
2019-01-05T15:20:18.016Z,5.07
2019-01-05T15:23:00.039Z,5.03
2019-01-05T15:25:39.118Z,4.10
2019-01-05T15:28:10.791Z,4.03
2019-01-05T15:30:59.191Z,4.10
2019-01-05T15:33:51.727Z,3.77
2019-01-05T15:36:28.611Z,3.30
2019-01-05T15:39:07.173Z,3.10
2019-01-05T15:41:55.290Z,3.17
2019-01-05T15:44:49.788Z,2.70
2019-01-05T15:47:45.733Z,3.83
2019-01-05T15:50:34.916Z,3.33
2019-01-05T15:53:24.698Z,3.57
2019-01-05T15:56:24.306Z,4.43
2019-01-05T15:59:06.037Z,4.17
2019-01-05T16:01:44.019Z,4.43
2019-01-05T16:04:19.846Z,3.43
2019-01-05T16:07:06.063Z,3.17
2019-01-05T16:09:44.366Z,2.77
2019-01-05T16:12:42.967Z,4.07
2019-01-05T16:15:28.867Z,3.60
2019-01-05T16:18:10.032Z,4.30
2019-01-05T16:20:54.514Z,2.83
2019-01-05T16:23:27.850Z,3.40
2019-01-05T16:26:13.069Z,3.17
2019-01-05T16:28:51.695Z,3.17
2019-01-05T16:31:36.355Z,1.90
2019-01-05T16:34:22.328Z,2.07
2019-01-05T16:37:02.255Z,2.37
2019-01-05T16:40:10.545Z,1.80
2019-01-05T16:43:02.412Z,1.83
2019-01-05T16:45:59.200Z,1.80
2019-01-05T16:48:27.724Z,1.77
2019-01-05T16:51:03.913Z,1.70
2019-01-05T16:53:51.177Z,1.40
2019-01-05T16:56:39.792Z,2.17
2019-01-05T16:59:17.664Z,2.47
2019-01-05T17:02:07.419Z,2.50
2019-01-05T17:04:46.622Z,3.50
2019-01-05T17:07:34.948Z,2.70
2019-01-05T17:10:12.327Z,2.80
2019-01-05T17:12:52.300Z,2.47
2019-01-05T17:18:24.659Z,2.60
2019-01-05T17:18:51.136Z,2.57
2019-01-05T17:21:12.514Z,2.90
2019-01-05T17:23:53.215Z,3.47
2019-01-05T17:26:41.098Z,2.70
2019-01-05T17:29:29.565Z,2.80
2019-01-05T17:32:10.285Z,2.50
2019-01-05T17:35:00.670Z,3.30
2019-01-05T17:40:51.776Z,3.00
2019-01-05T17:43:52.194Z,3.33
2019-01-05T17:50:08.792Z,2.97
2019-01-05T17:52:43.481Z,2.97
2019-01-05T17:55:35.203Z,3.10
2019-01-05T17:58:13.326Z,3.03
2019-01-05T18:01:06.759Z,3.37
2019-01-05T18:03:40.223Z,3.20
2019-01-05T18:06:17.389Z,3.87
2019-01-05T18:09:01.415Z,3.17
2019-01-05T18:11:48.194Z,3.27
2019-01-05T18:14:38.784Z,3.70
2019-01-05T18:17:34.788Z,3.70
2019-01-05T18:20:20.958Z,3.83
2019-01-05T18:26:02.445Z,4.20
2019-01-05T18:28:39.110Z,4.93
2019-01-05T18:31:47.409Z,5.13
2019-01-05T18:34:36.716Z,5.37
2019-01-05T18:37:20.366Z,5.00
2019-01-05T18:40:16.587Z,4.47
2019-01-05T18:43:05.770Z,5.00
2019-01-05T18:45:57.585Z,5.93
2019-01-05T18:48:29.670Z,7.30
2019-01-05T18:54:24.855Z,7.90
2019-01-05T18:56:58.113Z,6.93
2019-01-05T18:59:28.897Z,7.00
2019-01-05T19:01:59.183Z,6.87
2019-01-05T19:04:52.056Z,7.43
2019-01-05T19:07:37.807Z,6.97
2019-01-05T19:10:27.395Z,6.93
2019-01-05T19:13:14.052Z,7.80
2019-01-05T19:15:46.406Z,7.80
2019-01-05T19:18:21.866Z,8.03
2019-01-05T19:20:54.456Z,8.53
2019-01-05T19:23:42.959Z,7.33
2019-01-05T19:29:22.286Z,6.57
2019-01-05T19:32:08.821Z,6.30
2019-01-05T19:34:44.402Z,5.37
2019-01-05T19:37:24.632Z,5.83
2019-01-05T19:39:58.224Z,6.37
2019-01-05T19:42:34.317Z,6.03
2019-01-05T19:45:17.891Z,6.13
2019-01-05T19:47:54.358Z,6.60
2019-01-05T19:50:26.776Z,4.87
2019-01-05T19:53:03.006Z,4.07
2019-01-05T19:55:52.820Z,3.93
2019-01-05T19:58:40.623Z,3.83
2019-01-05T20:01:17.192Z,3.90
2019-01-05T20:04:00.044Z,2.90
2019-01-05T20:06:38.054Z,3.73
2019-01-05T20:09:32.674Z,4.17
2019-01-05T20:12:23.270Z,4.20
2019-01-05T20:15:00.844Z,3.47
2019-01-05T20:17:41.962Z,3.70
2019-01-05T20:20:13.881Z,3.67
2019-01-05T20:23:05.160Z,3.87
2019-01-05T20:25:48.935Z,4.13
2019-01-05T20:28:43.177Z,4.60
2019-01-05T20:31:20.073Z,4.03
2019-01-05T20:34:09.784Z,3.97
2019-01-05T20:36:56.295Z,4.30
2019-01-05T20:40:00.910Z,2.37
2019-01-05T20:42:34.746Z,3.17
2019-01-05T20:45:27.627Z,3.60
2019-01-05T20:48:06.315Z,4.27
2019-01-05T20:50:51.619Z,4.27
2019-01-05T20:53:39.930Z,4.70
2019-01-05T20:56:26.548Z,4.07
2019-01-05T20:59:14.576Z,4.50
2019-01-05T21:02:07.856Z,4.13
2019-01-05T21:04:38.889Z,4.40
2019-01-05T21:07:15.155Z,4.50
2019-01-05T21:10:03.396Z,4.13
2019-01-05T21:12:49.653Z,4.77
2019-01-05T21:15:28.424Z,4.93
2019-01-05T21:18:01.811Z,5.33
2019-01-05T21:20:32.118Z,5.60
2019-01-05T21:23:31.159Z,5.07
2019-01-05T21:26:05.050Z,5.20
2019-01-05T21:35:05.499Z,5.87
2019-01-05T21:37:39.016Z,6.00
2019-01-05T21:40:36.645Z,6.97
2019-01-05T21:43:31.024Z,6.47
2019-01-05T21:49:29.176Z,5.90
2019-01-05T21:52:09.948Z,4.97
2019-01-05T21:55:01.380Z,5.17
2019-01-05T21:57:33.634Z,5.30
2019-01-05T22:00:14.100Z,5.27
2019-01-05T22:02:52.633Z,4.87
2019-01-05T22:05:33.986Z,5.70
2019-01-05T22:08:08.451Z,6.03
2019-01-05T22:10:39.816Z,6.40
2019-01-05T22:13:24.572Z,6.70
2019-01-05T22:16:18.440Z,5.83
2019-01-05T22:18:57.358Z,4.57
2019-01-05T22:21:33.478Z,4.77
2019-01-05T22:24:05.702Z,5.60
2019-01-05T22:26:54.716Z,4.50
2019-01-05T22:29:40.319Z,5.33
2019-01-05T22:32:19.691Z,4.87
2019-01-05T22:35:09.234Z,4.20
2019-01-05T22:37:56.037Z,4.87
2019-01-05T22:40:47.925Z,3.47
2019-01-05T22:43:41.471Z,3.83
2019-01-05T22:46:16.307Z,2.60
2019-01-05T22:48:57.693Z,3.23
2019-01-05T22:54:44.980Z,3.00
2019-01-05T22:57:15.298Z,2.90
2019-01-05T22:59:50.587Z,3.00
2019-01-05T23:02:32.526Z,3.00
2019-01-05T23:05:30.634Z,3.03
2019-01-05T23:08:09.686Z,3.63
2019-01-05T23:10:49.150Z,3.77
2019-01-05T23:13:43.110Z,3.37
2019-01-05T23:16:13.490Z,3.90
2019-01-05T23:18:48.296Z,3.27
2019-01-05T23:21:41.088Z,4.00
2019-01-05T23:24:20.051Z,3.73
2019-01-05T23:26:59.285Z,3.73
2019-01-05T23:29:47.337Z,3.33
2019-01-05T23:32:55.371Z,4.00
2019-01-05T23:35:23.127Z,4.00
2019-01-05T23:38:10.657Z,3.30
2019-01-05T23:43:40.885Z,3.97
2019-01-05T23:46:19.929Z,4.23
2019-01-05T23:49:07.269Z,3.90
2019-01-05T23:51:53.502Z,3.93
2019-01-05T23:54:45.870Z,4.23
2019-01-05T23:57:22.461Z,3.97
2019-01-05T23:59:52.993Z,3.50
